Aeroporto :
LOGIN :

Iscrizione | Disclaimer

   EN    FR    IT 

 










Sommario :    VFR   VFR Marginale   IFR   IFR Intensivo   IFR Molto Intensivo
Visibilità : 
Base nubi : 
>= 8 km
>= 3000ft
5 / 8 km
1000 / 3000 ft
1500m / 5 km
500 / 1000 ft
800 / 1500m
200 / 500 ft
< 800m
< 200 ft
Simboli :   Temporali  Nebbia  Neve Forte  Precipitazioni Forti  Vento > 20 kt
SIGMETs :   Varie  Temporali  Ghiacco  Turbolenza  Onda orograficha  Ceneri Vulcaniche






- Altitudine del aeroporto : 129 ft
- Codice IATA : ZCN


ETHC - Celle

ULTIMO METAR :
  • 191720Z 22003KT 9999 BKN030 05/03 Q1018 BLU

METARs OBSOLETI :
  • 191651Z 22003KT 9999 BKN030 06/03 Q1017 BLU FCST CANCEL
  • 191620Z 22005KT 9999 BKN028 06/04 Q1017 BLU BLU TEMPO GRN
  • 191520Z 21004KT 9999 BKN016 BKN020 06/04 Q1016 WHT GRN TEMPO WHT
  • 191438Z 22007KT 9999 BKN015 BKN019 06/04 Q1016 WHT GRN TEMPO WHT

TAF AMD TAF ETHC
Valido dal 19 a 15 ore il 20 a 00 ore UTC


191632Z 1915/1924 21005KT 9999 NSW BKN013
TEMPO 1915/1920 20005KT 8000 NSW SCT015 BKN200
TEMPO 1920/1924 VRB03KT 0500 FG FEW015 BKN230 CANCEL 1700



MetMap, La meteo Aeronautica in un colpo d'occhio ! - Copyright ORBIFLY Dicembre 2007 - Disclaimer

ORBIFLY MET'MAP TEAM :

Programmazione e sviluppo : Alexandra Zaïnal
Concezione e sviluppo : Baudouin d'Aumeries
Co-Programmazione e sviluppo : Marc-Olivier Méhu
Supporto tecnico e logistico : Manuel Goepfert
Aiuto per la traduzione : Arnaldo La Scala

Contatto : metmap@orbifly.com




FONTI E CREDITI :

   NOAA